Time;durP1;ratioP1;P1;durP2;ratioP2;P2;SDS_P1;SDS_P2;PMS_P1;PMS_P2;Temp;Humidity;BMP_temperature;BMP_pressure;BME280_temperature;BME280_humidity;BME280_pressure;Samples;Min_cycle;Max_cycle;Signal;HPM_P1;HPM_P2
2021/05/24 00:00:12;;;;;;;2.57;1.70;;;;;;;5.11;79.84;96583.44;3546153;40;20534;-73
2021/05/24 00:02:40;;;;;;;2.00;1.30;;;;;;;4.89;79.44;96574.06;3545202;40;20511;-72
2021/05/24 00:05:12;;;;;;;4.70;1.27;;;;;;;4.74;79.60;96564.38;3543191;40;20455;-72
2021/05/24 00:07:40;;;;;;;5.93;1.60;;;;;;;4.87;79.32;96555.13;3548109;40;20492;-72
2021/05/24 00:10:11;;;;;;;2.67;1.53;;;;;;;4.93;79.01;96547.06;3545352;40;20541;-73
2021/05/24 00:12:38;;;;;;;3.00;1.50;;;;;;;4.95;79.18;96539.22;3548943;40;20447;-72
2021/05/24 00:15:07;;;;;;;4.20;2.20;;;;;;;4.86;80.10;96548.28;3535257;40;20485;-72
2021/05/24 00:17:35;;;;;;;2.83;1.70;;;;;;;4.92;79.70;96535.00;3544994;40;20771;-72
2021/05/24 00:20:05;;;;;;;5.03;1.67;;;;;;;4.90;79.89;96536.84;3544434;40;20473;-71
2021/05/24 00:22:33;;;;;;;2.47;1.53;;;;;;;4.89;80.10;96539.50;3543939;40;20832;-72
2021/05/24 00:25:00;;;;;;;5.18;1.23;;;;;;;4.77;80.17;96533.13;3542382;40;20780;-72
2021/05/24 00:27:28;;;;;;;3.63;1.85;;;;;;;4.72;80.47;96535.94;3543251;40;20564;-71
2021/05/24 00:29:56;;;;;;;2.10;1.20;;;;;;;4.88;79.72;96532.59;3536033;40;20546;-71
2021/05/24 00:32:23;;;;;;;23.63;1.98;;;;;;;4.76;79.77;96534.03;3549464;40;20793;-72
2021/05/24 00:34:50;;;;;;;4.50;1.77;;;;;;;4.78;79.53;96539.16;3542403;40;20313;-72
2021/05/24 00:37:18;;;;;;;2.53;1.67;;;;;;;4.67;79.72;96534.47;3546635;40;20681;-71
2021/05/24 00:39:46;;;;;;;8.50;2.45;;;;;;;4.65;79.47;96536.31;3549159;40;20845;-72
2021/05/24 00:42:14;;;;;;;4.90;1.70;;;;;;;4.73;79.47;96521.22;3547448;40;20350;-74
2021/05/24 00:44:42;;;;;;;2.47;1.77;;;;;;;4.75;79.22;96517.63;3545000;40;20253;-72
2021/05/24 00:47:10;;;;;;;3.80;1.40;;;;;;;4.76;79.47;96510.69;3537323;40;20759;-74
2021/05/24 00:49:37;;;;;;;7.87;2.00;;;;;;;4.69;79.26;96504.13;3547745;40;20235;-71
2021/05/24 00:52:05;;;;;;;3.10;1.40;;;;;;;4.68;79.66;96498.06;3548900;40;20845;-73
2021/05/24 00:54:32;;;;;;;3.72;2.30;;;;;;;4.82;79.70;96493.97;3545612;40;20455;-71
2021/05/24 00:57:01;;;;;;;4.22;1.60;;;;;;;4.77;79.82;96493.38;3542629;40;20241;-73
2021/05/24 00:59:29;;;;;;;5.07;2.10;;;;;;;4.84;79.87;96476.59;3546942;40;20484;-71
2021/05/24 01:01:56;;;;;;;7.03;2.20;;;;;;;4.85;79.76;96476.53;3544853;40;20473;-72
2021/05/24 01:04:25;;;;;;;3.78;2.20;;;;;;;4.89;79.63;96483.25;3547929;40;20720;-73
2021/05/24 01:06:54;;;;;;;4.30;1.90;;;;;;;4.84;80.13;96492.16;3548272;40;20251;-72
2021/05/24 01:09:22;;;;;;;8.83;2.33;;;;;;;4.70;80.80;96490.22;3542452;40;20449;-72
2021/05/24 01:11:51;;;;;;;2.50;1.67;;;;;;;4.51;81.00;96483.31;3540883;40;20468;-71
2021/05/24 01:14:19;;;;;;;5.95;2.45;;;;;;;4.58;80.84;96477.81;3543419;40;20840;-72
2021/05/24 01:16:51;;;;;;;5.25;2.05;;;;;;;4.64;80.28;96477.53;3535240;40;20522;-73
2021/05/24 01:19:20;;;;;;;4.73;2.23;;;;;;;4.61;80.59;96480.28;3547963;40;20332;-73
2021/05/24 01:21:49;;;;;;;5.57;2.33;;;;;;;4.53;80.23;96455.53;3540378;40;20537;-73
2021/05/24 01:24:18;;;;;;;7.30;2.30;;;;;;;4.69;80.17;96467.78;3548012;40;20821;-71
2021/05/24 01:26:45;;;;;;;3.50;1.70;;;;;;;4.70;80.33;96446.94;3551300;40;20502;-72
2021/05/24 01:29:14;;;;;;;5.63;2.63;;;;;;;4.72;80.08;96445.16;3545163;40;20565;-72
2021/05/24 01:31:42;;;;;;;6.33;1.90;;;;;;;4.68;80.16;96446.19;3541990;40;20667;-71
2021/05/24 01:34:11;;;;;;;4.37;2.00;;;;;;;4.69;79.97;96453.06;3546507;40;20455;-72
2021/05/24 01:36:38;;;;;;;8.48;2.25;;;;;;;4.44;80.54;96450.78;3542352;40;20465;-73
2021/05/24 01:39:08;;;;;;;4.38;1.50;;;;;;;4.49;80.45;96453.19;3548796;40;20239;-71
2021/05/24 01:41:36;;;;;;;12.05;1.83;;;;;;;4.45;80.47;96455.06;3547122;40;20334;-72
2021/05/24 01:44:04;;;;;;;8.18;2.15;;;;;;;4.36;80.46;96448.53;3536490;40;20236;-73
2021/05/24 01:46:32;;;;;;;2.53;1.73;;;;;;;4.25;80.86;96450.78;3533054;40;20237;-73
2021/05/24 01:48:59;;;;;;;4.87;2.00;;;;;;;4.09;81.52;96453.22;3543017;40;20474;-72
2021/05/24 01:51:27;;;;;;;6.67;1.80;;;;;;;4.16;80.89;96449.47;3540860;40;20818;-72
2021/05/24 01:53:54;;;;;;;2.50;1.73;;;;;;;4.28;80.18;96449.81;3550007;40;20741;-74
2021/05/24 01:56:22;;;;;;;4.03;2.15;;;;;;;4.27;80.55;96454.16;3548239;40;20776;-69
2021/05/24 01:58:54;;;;;;;2.90;1.90;;;;;;;4.31;80.40;96442.75;3543400;40;20550;-70
2021/05/24 02:01:21;;;;;;;3.78;1.80;;;;;;;4.34;79.96;96446.94;3542643;40;20253;-72
2021/05/24 02:03:49;;;;;;;4.30;2.10;;;;;;;4.27;79.84;96437.75;3545728;40;20228;-71
2021/05/24 02:06:16;;;;;;;8.23;2.15;;;;;;;4.26;79.73;96436.91;3547808;40;20559;-71
2021/05/24 02:08:44;;;;;;;6.45;1.98;;;;;;;4.24;80.39;96440.50;3548894;40;20248;-71
2021/05/24 02:11:13;;;;;;;3.08;1.70;;;;;;;4.26;80.28;96431.72;3547269;40;20241;-70
2021/05/24 02:13:43;;;;;;;3.00;1.98;;;;;;;4.25;80.32;96424.03;3543802;40;20308;-70
2021/05/24 02:16:11;;;;;;;3.75;2.13;;;;;;;4.30;80.54;96416.88;3547741;40;20667;-72
2021/05/24 02:18:39;;;;;;;6.05;2.40;;;;;;;4.31;80.87;96423.72;3546686;40;20227;-70
2021/05/24 02:21:08;;;;;;;2.15;1.55;;;;;;;4.20;81.68;96420.81;3541829;40;20249;-72
2021/05/24 02:23:35;;;;;;;7.95;2.15;;;;;;;4.22;81.62;96411.22;3545926;40;20218;-72
2021/05/24 02:26:03;;;;;;;3.42;1.90;;;;;;;4.36;81.52;96404.47;3542317;40;20304;-71
2021/05/24 02:28:30;;;;;;;5.15;1.80;;;;;;;4.30;81.24;96404.75;3544285;40;20239;-70
2021/05/24 02:30:59;;;;;;;3.00;2.25;;;;;;;4.21;80.74;96402.56;3545991;40;20265;-71
2021/05/24 02:33:26;;;;;;;3.55;2.20;;;;;;;4.16;81.02;96404.56;3548160;40;20304;-71
2021/05/24 02:35:55;;;;;;;2.95;2.00;;;;;;;4.16;80.86;96381.22;3540955;40;20683;-71
2021/05/24 02:38:22;;;;;;;4.72;1.85;;;;;;;4.16;80.74;96389.00;3545414;40;20564;-72
2021/05/24 02:40:50;;;;;;;2.47;1.85;;;;;;;4.11;80.99;96391.78;3549937;40;20262;-73
2021/05/24 02:43:19;;;;;;;4.07;1.77;;;;;;;4.07;81.62;96395.44;3539007;40;20798;-71
2021/05/24 02:45:48;;;;;;;5.78;1.42;;;;;;;4.03;82.00;96390.47;3533978;40;20244;-71
2021/05/24 02:48:17;;;;;;;3.00;1.83;;;;;;;4.15;81.78;96389.91;3542928;40;20231;-72
2021/05/24 02:50:44;;;;;;;5.50;2.20;;;;;;;4.24;81.36;96383.47;3547591;40;20901;-73
2021/05/24 02:53:12;;;;;;;2.95;1.80;;;;;;;4.23;81.24;96382.59;3548682;40;20538;-72
2021/05/24 02:55:40;;;;;;;2.25;1.80;;;;;;;4.20;81.48;96387.13;3549520;40;20679;-71
2021/05/24 02:58:07;;;;;;;5.78;1.80;;;;;;;4.20;81.93;96387.94;3549805;40;20222;-74
2021/05/24 03:00:34;;;;;;;3.75;1.65;;;;;;;4.29;81.61;96384.06;3544175;40;20601;-72
2021/05/24 03:03:02;;;;;;;2.15;1.67;;;;;;;4.27;81.19;96397.13;3542674;40;20559;-72
2021/05/24 03:05:30;;;;;;;4.80;2.65;;;;;;;3.94;80.80;96389.16;3549558;40;20282;-72
2021/05/24 03:08:01;;;;;;;3.35;1.80;;;;;;;3.90;80.96;96390.19;3538086;40;20343;-71
2021/05/24 03:10:29;;;;;;;2.28;1.85;;;;;;;3.89;81.12;96389.34;3549183;40;20225;-73
2021/05/24 03:12:56;;;;;;;2.42;1.55;;;;;;;4.04;80.74;96386.97;3544956;40;20225;-72
2021/05/24 03:15:24;;;;;;;4.32;2.13;;;;;;;4.21;80.74;96383.59;3547513;40;20238;-73
2021/05/24 03:17:53;;;;;;;3.92;1.70;;;;;;;4.20;80.88;96380.19;3540497;40;20229;-72
2021/05/24 03:20:20;;;;;;;3.47;1.98;;;;;;;4.29;81.19;96391.84;3545895;40;20550;-73
2021/05/24 03:22:49;;;;;;;2.95;1.67;;;;;;;4.23;82.05;96395.56;3543389;40;20554;-74
2021/05/24 03:25:18;;;;;;;6.30;2.08;;;;;;;4.04;83.70;96392.16;3544935;40;20579;-71
2021/05/24 03:27:46;;;;;;;4.68;1.85;;;;;;;4.12;83.04;96393.50;3546951;40;20250;-71
2021/05/24 03:30:16;;;;;;;3.15;1.73;;;;;;;4.24;82.44;96368.75;3544945;40;20234;-72
2021/05/24 03:32:43;;;;;;;9.23;1.90;;;;;;;4.39;82.07;96374.97;3538855;40;20586;-72
2021/05/24 03:35:11;;;;;;;2.35;1.88;;;;;;;4.33;82.17;96349.31;3545760;40;20233;-71
2021/05/24 03:37:38;;;;;;;6.00;1.50;;;;;;;4.39;82.09;96367.19;3536056;40;20273;-72
2021/05/24 03:40:09;;;;;;;3.33;1.83;;;;;;;4.41;81.78;96374.88;3542494;40;20225;-71
2021/05/24 03:42:37;;;;;;;3.65;1.90;;;;;;;4.44;81.65;96382.53;3534652;40;20251;-71
2021/05/24 03:45:07;;;;;;;5.70;3.35;;;;;;;4.03;81.25;96344.66;3551096;40;20916;-71
2021/05/24 03:47:34;;;;;;;3.35;2.00;;;;;;;4.27;81.74;96371.22;3536836;40;20644;-72
2021/05/24 03:50:03;;;;;;;3.88;2.00;;;;;;;4.45;81.77;96382.47;3548119;40;20477;-72
2021/05/24 03:52:31;;;;;;;3.33;2.15;;;;;;;4.31;79.89;96370.16;3533010;40;20237;-72
2021/05/24 03:54:58;;;;;;;3.30;1.92;;;;;;;3.96;80.27;96377.81;3546985;40;20257;-71
2021/05/24 03:57:27;;;;;;;2.25;2.00;;;;;;;4.08;80.08;96384.19;3542861;40;20293;-72
2021/05/24 03:59:54;;;;;;;6.20;2.45;;;;;;;4.02;80.30;96378.41;3545763;40;20524;-71
2021/05/24 04:02:22;;;;;;;4.20;2.00;;;;;;;4.18;80.50;96370.81;3544568;40;20248;-73
2021/05/24 04:04:50;;;;;;;3.50;1.63;;;;;;;4.31;80.51;96379.66;3541374;40;20245;-72
2021/05/24 04:07:22;;;;;;;9.93;2.17;;;;;;;4.22;81.20;96380.13;3545846;40;20283;-72
2021/05/24 04:09:52;;;;;;;4.07;2.03;;;;;;;4.37;80.92;96381.94;3546850;40;20287;-73
2021/05/24 04:12:19;;;;;;;2.70;1.85;;;;;;;4.46;80.50;96373.75;3544431;40;20605;-72
2021/05/24 04:14:49;;;;;;;5.40;2.00;;;;;;;4.39;80.88;96369.78;3544539;40;20257;-73
2021/05/24 04:17:20;;;;;;;3.55;1.85;;;;;;;4.33;81.08;96344.13;3546523;40;20502;-73
2021/05/24 04:19:49;;;;;;;3.38;1.83;;;;;;;4.52;80.73;96370.84;3543856;40;20218;-72
2021/05/24 04:22:19;;;;;;;4.13;1.90;;;;;;;4.53;80.79;96361.34;3550961;40;20597;-72
2021/05/24 04:24:46;;;;;;;3.97;2.22;;;;;;;4.58;80.69;96368.88;3545719;40;21167;-73
2021/05/24 04:27:14;;;;;;;2.88;1.77;;;;;;;4.51;81.07;96364.00;3544465;40;20256;-73
2021/05/24 04:29:41;;;;;;;2.58;1.95;;;;;;;4.52;81.83;96373.44;3536804;40;20347;-71
2021/05/24 04:32:09;;;;;;;4.30;1.90;;;;;;;4.66;81.77;96358.97;3535206;40;20649;-71
2021/05/24 04:34:37;;;;;;;2.20;1.53;;;;;;;4.82;81.77;96365.09;3547390;40;20244;-72
2021/05/24 04:37:04;;;;;;;5.25;2.17;;;;;;;4.86;80.75;96364.03;3543250;40;20891;-71
2021/05/24 04:39:31;;;;;;;3.23;1.67;;;;;;;4.52;80.58;96351.88;3544335;40;20428;-72
2021/05/24 04:41:59;;;;;;;5.45;1.60;;;;;;;4.33;81.97;96325.97;3547226;40;20597;-71
2021/05/24 04:44:26;;;;;;;3.17;1.30;;;;;;;4.76;81.17;96342.03;3546199;40;20335;-71
2021/05/24 04:46:54;;;;;;;2.67;1.80;;;;;;;4.98;81.28;96343.56;3546917;40;20250;-72
2021/05/24 04:49:22;;;;;;;3.07;1.50;;;;;;;5.19;80.95;96347.66;3544686;40;20599;-72
2021/05/24 04:51:49;;;;;;;2.28;1.83;;;;;;;5.16;80.89;96303.69;3545788;40;20776;-72
2021/05/24 04:54:19;;;;;;;2.95;1.40;;;;;;;5.47;79.89;96341.03;3548972;40;20237;-72
2021/05/24 04:56:47;;;;;;;4.80;1.47;;;;;;;5.37;79.79;96337.22;3544957;40;20251;-72
2021/05/24 04:59:15;;;;;;;7.00;1.70;;;;;;;5.20;80.32;96344.16;3548790;40;20537;-72
2021/05/24 05:01:44;;;;;;;2.53;1.50;;;;;;;5.40;78.91;96340.53;3548313;40;20688;-73
2021/05/24 05:04:14;;;;;;;3.57;1.70;;;;;;;5.12;79.31;96343.72;3549606;40;20460;-73
2021/05/24 05:06:42;;;;;;;3.30;2.10;;;;;;;5.39;77.99;96354.44;3546171;40;20444;-72
2021/05/24 05:09:09;;;;;;;3.50;1.90;;;;;;;5.41;78.06;96341.34;3547555;40;20919;-72
2021/05/24 05:11:37;;;;;;;4.43;1.80;;;;;;;5.46;78.40;96340.19;3548021;40;20467;-73
2021/05/24 05:14:04;;;;;;;5.70;1.50;;;;;;;5.66;78.49;96351.28;3549487;40;20464;-72
2021/05/24 05:16:32;;;;;;;5.37;1.97;;;;;;;5.80;78.28;96351.41;3535549;40;20471;-72
2021/05/24 05:18:59;;;;;;;4.93;1.77;;;;;;;5.80;77.71;96345.34;3544315;40;20917;-72
2021/05/24 05:21:26;;;;;;;3.80;1.80;;;;;;;5.83;77.41;96343.44;3541527;40;20463;-71
2021/05/24 05:23:55;;;;;;;2.90;1.85;;;;;;;5.81;77.39;96345.28;3547469;40;20844;-72
2021/05/24 05:26:22;;;;;;;3.80;2.87;;;;;;;5.67;77.03;96325.25;3547952;40;20329;-72
2021/05/24 05:28:52;;;;;;;4.57;3.00;;;;;;;5.75;77.12;96336.06;3547932;40;20874;-72
2021/05/24 05:31:19;;;;;;;6.10;2.90;;;;;;;5.85;76.94;96345.97;3544212;40;20569;-72
2021/05/24 05:33:46;;;;;;;6.70;3.20;;;;;;;5.97;76.46;96332.31;3544402;40;20533;-72
2021/05/24 05:36:14;;;;;;;10.40;3.00;;;;;;;6.00;76.66;96336.50;3549802;40;20867;-74
2021/05/24 05:38:41;;;;;;;3.90;2.43;;;;;;;6.22;76.21;96337.03;3544350;40;20775;-73
2021/05/24 05:41:09;;;;;;;5.23;2.67;;;;;;;6.17;75.99;96333.81;3545789;40;20549;-72
2021/05/24 05:43:37;;;;;;;9.33;2.00;;;;;;;6.07;76.46;96330.88;3544128;40;20436;-72
2021/05/24 05:46:04;;;;;;;2.23;1.80;;;;;;;6.22;76.48;96331.81;3545029;40;20526;-73
2021/05/24 05:48:32;;;;;;;3.03;2.07;;;;;;;6.19;76.76;96328.53;3544790;40;20460;-72
2021/05/24 05:50:59;;;;;;;3.00;1.93;;;;;;;6.38;76.64;96320.56;3548402;40;20549;-71
2021/05/24 05:53:26;;;;;;;4.53;2.03;;;;;;;6.39;76.83;96320.47;3554266;40;20484;-71
2021/05/24 05:55:54;;;;;;;2.67;1.80;;;;;;;6.48;76.87;96322.53;3548895;40;20911;-72
2021/05/24 05:58:22;;;;;;;2.43;2.03;;;;;;;6.64;77.10;96321.66;3547937;40;20481;-72
2021/05/24 06:00:50;;;;;;;4.40;2.50;;;;;;;6.92;75.96;96321.75;3545408;40;20903;-72
2021/05/24 06:03:18;;;;;;;2.80;2.27;;;;;;;7.09;74.71;96314.72;3535633;40;20869;-73
2021/05/24 06:05:45;;;;;;;3.33;2.50;;;;;;;6.83;75.62;96305.84;3548178;40;21579;-71
2021/05/24 06:08:13;;;;;;;4.47;3.23;;;;;;;6.87;75.57;96302.94;3546340;40;20472;-72
2021/05/24 06:10:40;;;;;;;6.20;3.97;;;;;;;7.33;74.24;96301.97;3541670;40;20850;-71
2021/05/24 06:13:08;;;;;;;4.30;3.40;;;;;;;7.46;73.74;96307.28;3543081;40;20861;-71
2021/05/24 06:15:36;;;;;;;8.00;3.20;;;;;;;7.50;73.64;96301.78;3543644;40;20522;-70
2021/05/24 06:18:04;;;;;;;4.60;3.27;;;;;;;7.64;73.35;96306.16;3545553;40;20536;-71
2021/05/24 06:20:32;;;;;;;10.00;3.73;;;;;;;7.87;72.44;96298.69;3540925;40;20900;-71
2021/05/24 06:22:59;;;;;;;9.60;2.67;;;;;;;7.83;72.56;96302.41;3545467;40;20473;-70
2021/05/24 06:25:27;;;;;;;3.20;2.00;;;;;;;8.06;72.55;96300.97;3543449;40;20460;-71
2021/05/24 06:27:54;;;;;;;2.67;2.20;;;;;;;8.12;72.26;96306.63;3544046;40;20863;-73
2021/05/24 06:30:22;;;;;;;4.33;2.30;;;;;;;8.23;72.20;96305.09;3541601;40;20887;-72
2021/05/24 06:32:54;;;;;;;5.17;2.50;;;;;;;8.24;72.63;96306.78;3543614;40;20577;-70
2021/05/24 06:35:21;;;;;;;6.07;3.37;;;;;;;8.35;72.33;96296.50;3546911;40;20452;-72
2021/05/24 06:37:52;;;;;;;5.83;4.00;;;;;;;8.55;71.67;96302.25;3542171;40;20915;-71
2021/05/24 06:40:19;;;;;;;9.73;5.80;;;;;;;8.48;71.72;96299.19;3549243;40;20432;-71
2021/05/24 06:42:47;;;;;;;11.67;7.53;;;;;;;8.45;72.18;96295.00;3549106;40;20524;-70
2021/05/24 06:45:19;;;;;;;10.20;4.43;;;;;;;8.24;73.00;96262.44;3539798;40;20476;-72
2021/05/24 06:47:47;;;;;;;5.83;3.70;;;;;;;8.77;72.57;96292.03;3544761;40;20840;-72
2021/05/24 06:50:15;;;;;;;5.90;3.47;;;;;;;8.88;72.39;96284.34;3545789;40;20459;-70
2021/05/24 06:52:43;;;;;;;7.20;4.67;;;;;;;9.24;72.39;96282.78;3544663;40;20861;-71
2021/05/24 06:55:11;;;;;;;7.83;3.97;;;;;;;9.40;73.75;96282.56;3547486;40;20779;-72
2021/05/24 06:57:39;;;;;;;7.47;4.47;;;;;;;9.81;72.84;96272.78;3541752;40;20491;-72
2021/05/24 07:00:11;;;;;;;17.33;6.53;;;;;;;10.43;70.44;96277.91;3546846;40;20824;-72
2021/05/24 07:02:39;;;;;;;5.40;3.27;;;;;;;10.79;68.01;96273.50;3547516;40;20479;-71
2021/05/24 07:05:08;;;;;;;4.47;2.93;;;;;;;10.76;68.04;96291.22;3543056;40;20443;-69
2021/05/24 07:07:36;;;;;;;6.13;4.60;;;;;;;10.74;67.58;96291.38;3543934;40;20469;-70
2021/05/24 07:10:05;;;;;;;8.87;4.50;;;;;;;10.88;66.51;96290.34;3546141;40;20447;-71
2021/05/24 07:12:33;;;;;;;3.23;2.07;;;;;;;11.02;65.39;96297.16;3545073;40;20492;-71
2021/05/24 07:15:03;;;;;;;10.97;2.30;;;;;;;11.23;64.00;96290.31;3545919;40;20554;-70
2021/05/24 07:17:31;;;;;;;4.00;1.93;;;;;;;11.67;61.67;96283.41;3546462;40;20997;-70
2021/05/24 07:19:59;;;;;;;5.43;2.40;;;;;;;11.84;60.40;96273.38;3541135;40;20797;-71
2021/05/24 07:22:26;;;;;;;2.80;1.70;;;;;;;11.86;59.89;96260.97;3545157;40;20463;-70
2021/05/24 07:24:56;;;;;;;4.70;1.77;;;;;;;12.40;58.45;96270.63;3549106;40;20463;-70
2021/05/24 07:27:23;;;;;;;2.67;1.20;;;;;;;12.50;57.52;96269.91;3545273;40;20506;-71
2021/05/24 07:29:51;;;;;;;1.70;1.00;;;;;;;12.74;54.40;96264.41;3545053;40;20582;-72
2021/05/24 07:32:18;;;;;;;3.10;1.00;;;;;;;13.09;53.27;96271.16;3541481;40;20527;-72
2021/05/24 07:34:46;;;;;;;1.00;0.70;;;;;;;13.06;53.44;96269.63;3546548;40;20445;-70
2021/05/24 07:37:13;;;;;;;4.73;1.13;;;;;;;13.08;52.27;96251.94;3546743;40;20898;-70
2021/05/24 07:39:41;;;;;;;2.80;0.80;;;;;;;13.08;52.83;96249.31;3538024;40;20477;-70
2021/05/24 07:42:10;;;;;;;5.03;1.20;;;;;;;13.19;52.37;96253.63;3547254;40;20477;-70
2021/05/24 07:44:37;;;;;;;1.70;1.20;;;;;;;13.44;51.62;96249.78;3543703;40;20460;-70
2021/05/24 07:47:06;;;;;;;2.27;0.80;;;;;;;13.51;51.59;96256.19;3546687;40;20701;-71
2021/05/24 07:49:34;;;;;;;5.13;0.80;;;;;;;13.44;50.42;96247.97;3546418;40;20451;-70
2021/05/24 07:52:03;;;;;;;3.87;1.13;;;;;;;13.40;50.13;96248.38;3543559;40;20456;-71
2021/05/24 07:54:30;;;;;;;1.00;0.67;;;;;;;13.21;51.19;96242.03;3547538;40;20868;-72
2021/05/24 07:56:57;;;;;;;1.47;0.70;;;;;;;13.15;51.22;96244.34;3533349;40;20473;-71
2021/05/24 07:59:26;;;;;;;7.30;3.70;;;;;;;12.94;52.08;96260.16;3546248;40;21201;-71
2021/05/24 08:01:53;;;;;;;3.20;1.00;;;;;;;13.10;52.72;96249.19;3543155;40;20456;-71
2021/05/24 08:04:21;;;;;;;5.37;0.93;;;;;;;13.31;52.35;96233.38;3545325;40;20891;-71
2021/05/24 08:06:50;;;;;;;2.40;0.90;;;;;;;14.15;50.60;96243.63;3541904;40;20780;-72
2021/05/24 08:09:18;;;;;;;3.57;1.10;;;;;;;13.98;49.53;96232.81;3543749;40;20820;-71
2021/05/24 08:11:45;;;;;;;2.03;0.90;;;;;;;14.18;50.16;96232.84;3542499;40;20709;-71
2021/05/24 08:14:15;;;;;;;3.70;0.70;;;;;;;13.99;50.04;96231.00;3536137;40;20476;-71
2021/05/24 08:16:45;;;;;;;1.93;0.70;;;;;;;14.30;49.98;96231.72;3542178;40;20581;-71
2021/05/24 08:19:14;;;;;;;4.57;0.70;;;;;;;14.01;50.24;96223.78;3540002;40;20838;-72
2021/05/24 08:21:42;;;;;;;3.53;0.87;;;;;;;14.42;49.70;96237.69;3539734;40;20475;-72
2021/05/24 08:24:10;;;;;;;1.50;0.80;;;;;;;14.69;49.88;96237.03;3534282;40;20789;-72
2021/05/24 08:26:38;;;;;;;2.80;0.80;;;;;;;15.15;48.29;96240.72;3546076;40;20514;-72
2021/05/24 08:29:07;;;;;;;10.80;4.50;;;;;;;15.77;47.26;96234.97;3545166;40;20484;-71
2021/05/24 08:31:36;;;;;;;3.47;2.00;;;;;;;15.90;48.09;96232.81;3544182;40;20478;-73
2021/05/24 08:34:04;;;;;;;1.20;0.80;;;;;;;15.52;47.59;96213.50;3544863;40;20819;-71
2021/05/24 08:36:32;;;;;;;1.20;0.70;;;;;;;15.44;47.97;96208.13;3545861;40;20557;-71
2021/05/24 08:38:59;;;;;;;3.53;1.00;;;;;;;15.54;48.12;96224.78;3537940;40;20456;-70
2021/05/24 08:41:27;;;;;;;2.50;0.80;;;;;;;15.55;47.89;96212.41;3535896;40;20468;-71
2021/05/24 08:43:54;;;;;;;3.17;0.80;;;;;;;15.69;48.00;96214.56;3544460;40;20701;-72
2021/05/24 08:46:24;;;;;;;4.50;1.20;;;;;;;15.48;48.42;96206.88;3539401;40;20565;-72
2021/05/24 08:48:55;;;;;;;0.80;0.60;;;;;;;15.77;48.36;96206.75;3544081;40;21281;-71
2021/05/24 08:51:23;;;;;;;2.97;0.70;;;;;;;15.89;48.24;96203.94;3546894;40;20557;-71
2021/05/24 08:53:51;;;;;;;1.50;0.80;;;;;;;16.33;46.76;96201.41;3542851;40;20829;-71
2021/05/24 08:56:19;;;;;;;4.60;2.40;;;;;;;17.06;46.26;96187.97;3537273;40;20986;-72
2021/05/24 08:58:49;;;;;;;11.13;6.37;;;;;;;17.36;45.17;96196.41;3544711;40;20857;-71
2021/05/24 09:01:16;;;;;;;1.77;0.90;;;;;;;17.33;44.55;96189.63;3538094;40;20497;-71
2021/05/24 09:03:47;;;;;;;1.93;0.93;;;;;;;17.39;44.29;96191.63;3543027;40;20482;-71
2021/05/24 09:06:15;;;;;;;2.73;1.20;;;;;;;17.76;43.47;96181.72;3546588;40;20800;-72
2021/05/24 09:08:44;;;;;;;1.50;0.73;;;;;;;17.49;43.21;96172.97;3545582;40;20511;-72
2021/05/24 09:11:25;;;;;;;2.70;0.70;;;;;;;17.58;42.82;96176.47;3543573;40;20957;-73
2021/05/24 09:13:52;;;;;;;1.77;0.83;;;;;;;17.77;42.96;96170.09;3545005;40;20448;-71
2021/05/24 09:16:26;;;;;;;4.70;0.80;;;;;;;17.76;41.66;96164.00;3533385;40;20475;-72
2021/05/24 09:19:15;;;;;;;0.90;0.80;;;;;;;17.31;43.82;96129.91;3546755;40;20659;-72
2021/05/24 09:21:51;;;;;;;2.40;0.80;;;;;;;17.22;41.81;96150.19;3544823;40;20537;-72
2021/05/24 09:24:26;;;;;;;1.87;0.87;;;;;;;17.82;41.43;96130.75;3532256;40;20791;-72
2021/05/24 09:26:55;;;;;;;1.53;0.60;;;;;;;17.77;41.48;96160.34;3542646;40;20730;-71
2021/05/24 09:29:25;;;;;;;2.20;0.73;;;;;;;17.60;42.48;96150.69;3543269;40;20503;-71
2021/05/24 09:32:12;;;;;;;1.00;0.60;;;;;;;17.45;40.78;96153.13;3547456;40;20968;-71
2021/05/24 09:34:41;;;;;;;1.47;0.60;;;;;;;17.46;38.39;96149.47;3542234;40;20526;-71
2021/05/24 09:37:09;;;;;;;0.93;0.50;;;;;;;17.46;39.45;96144.16;3543890;40;20775;-71
2021/05/24 09:39:38;;;;;;;1.97;0.70;;;;;;;17.51;38.71;96144.53;3546049;40;20457;-72
2021/05/24 09:42:07;;;;;;;3.27;0.60;;;;;;;17.26;38.80;96145.41;3533322;40;20819;-71
2021/05/24 09:44:41;;;;;;;1.10;0.77;;;;;;;17.35;36.71;96134.72;3542965;40;20877;-70
2021/05/24 09:47:08;;;;;;;1.17;0.60;;;;;;;17.28;38.01;96143.44;3545635;40;20983;-70
2021/05/24 09:49:39;;;;;;;3.70;0.60;;;;;;;17.29;37.54;96131.84;3544482;40;20861;-70
2021/05/24 09:52:06;;;;;;;1.43;0.60;;;;;;;17.24;38.15;96126.22;3544008;40;20531;-71
2021/05/24 09:54:35;;;;;;;1.17;0.50;;;;;;;17.16;38.68;96130.47;3547580;40;20512;-71
2021/05/24 09:57:10;;;;;;;3.27;0.70;;;;;;;17.37;37.64;96134.56;3543746;40;20561;-73
2021/05/24 09:59:38;;;;;;;1.20;0.63;;;;;;;17.42;37.54;96123.50;3542979;40;20708;-73
2021/05/24 10:02:08;;;;;;;1.40;0.70;;;;;;;17.15;38.03;96128.84;3532874;40;20464;-73
2021/05/24 10:04:36;;;;;;;1.23;0.60;;;;;;;17.46;38.73;96124.81;3538250;40;20479;-74
2021/05/24 10:07:06;;;;;;;2.60;0.80;;;;;;;17.18;36.04;96128.50;3545213;40;20455;-74
2021/05/24 10:09:37;;;;;;;1.10;0.70;;;;;;;16.96;39.03;96121.13;3542543;40;20475;-72
2021/05/24 10:12:07;;;;;;;7.23;0.70;;;;;;;17.04;39.69;96115.88;3541540;40;20806;-72
2021/05/24 10:14:34;;;;;;;1.73;0.60;;;;;;;17.25;39.10;96112.00;3545741;40;20895;-75
2021/05/24 10:17:03;;;;;;;3.80;0.73;;;;;;;16.96;39.73;96102.63;3540552;40;21203;-73
2021/05/24 10:19:31;;;;;;;3.37;0.80;;;;;;;17.52;40.34;96110.94;3541140;40;20837;-73
2021/05/24 10:21:59;;;;;;;1.00;0.70;;;;;;;17.78;38.77;96098.44;3547148;40;21100;-73
2021/05/24 10:24:29;;;;;;;0.80;0.60;;;;;;;17.60;39.54;96095.09;3543923;40;20479;-73
2021/05/24 10:26:58;;;;;;;0.90;0.70;;;;;;;17.50;38.82;96107.63;3547701;40;20514;-72
2021/05/24 10:29:29;;;;;;;1.37;0.70;;;;;;;17.22;36.67;96101.75;3541531;40;21233;-74
2021/05/24 10:31:56;;;;;;;1.00;0.60;;;;;;;17.39;35.34;96099.00;3540127;40;20491;-74
2021/05/24 10:34:25;;;;;;;2.07;0.60;;;;;;;17.00;37.24;96096.03;3545025;40;20525;-73
2021/05/24 10:37:06;;;;;;;2.50;0.80;;;;;;;17.04;37.09;96093.91;3544951;40;20470;-73
2021/05/24 10:39:50;;;;;;;1.00;0.70;;;;;;;16.99;35.09;96087.28;3542756;40;20901;-73
2021/05/24 10:42:34;;;;;;;0.80;0.60;;;;;;;17.12;35.15;96092.09;3542248;40;20783;-74
2021/05/24 10:45:17;;;;;;;1.33;0.80;;;;;;;17.16;35.31;96080.22;3541717;40;20915;-74
2021/05/24 10:47:53;;;;;;;3.73;0.50;;;;;;;17.11;36.16;96071.94;3544535;40;20467;-74
2021/05/24 10:50:22;;;;;;;1.30;0.70;;;;;;;17.04;34.90;96088.59;3546758;40;20436;-75
2021/05/24 10:52:57;;;;;;;1.20;0.70;;;;;;;17.03;35.47;96082.47;3540747;40;20479;-76
2021/05/24 10:55:49;;;;;;;2.70;0.60;;;;;;;17.03;36.54;96071.06;3542668;40;20478;-72
2021/05/24 10:58:20;;;;;;;1.60;0.80;;;;;;;17.11;37.11;96074.59;3544747;40;20569;-73
2021/05/24 11:00:55;;;;;;;1.43;0.60;;;;;;;17.53;37.38;96063.16;3545020;40;20903;-75
2021/05/24 11:03:23;;;;;;;2.23;1.10;;;;;;;17.64;37.27;96064.69;3541584;40;20439;-77
2021/05/24 11:06:11;;;;;;;2.50;1.00;;;;;;;17.10;37.49;96058.88;3535314;40;20919;-73
2021/05/24 11:08:42;;;;;;;1.70;0.93;;;;;;;16.84;38.47;96058.91;3537464;40;20464;-77
2021/05/24 11:11:18;;;;;;;1.63;0.73;;;;;;;17.14;37.74;96058.38;3543507;40;21160;-73
2021/05/24 11:13:57;;;;;;;1.90;0.60;;;;;;;17.49;37.27;96056.53;3543122;40;20482;-72
2021/05/24 11:16:26;;;;;;;1.60;0.80;;;;;;;17.45;37.72;96049.06;3543179;40;20471;-77
2021/05/24 11:19:07;;;;;;;1.97;0.77;;;;;;;18.42;37.28;96052.78;3542430;40;20437;-74
2021/05/24 11:21:35;;;;;;;1.00;0.70;;;;;;;17.97;35.95;96046.19;3532935;40;20542;-76
2021/05/24 11:24:32;;;;;;;1.57;0.60;;;;;;;18.86;34.52;96038.34;3544409;40;20535;-76
2021/05/24 11:27:09;;;;;;;1.20;0.77;;;;;;;19.42;34.11;96031.09;3545933;40;20919;-77
2021/05/24 11:29:36;;;;;;;2.73;0.63;;;;;;;18.68;33.31;96047.31;3544472;40;20670;-75
2021/05/24 11:32:19;;;;;;;2.60;0.63;;;;;;;18.54;33.97;96030.28;3542638;40;21181;-75
2021/05/24 11:34:47;;;;;;;3.10;0.80;;;;;;;18.64;33.20;96022.13;3538702;40;20481;-75
2021/05/24 11:37:16;;;;;;;1.00;0.60;;;;;;;19.31;31.68;96031.53;3540612;40;20443;-76
2021/05/24 11:39:50;;;;;;;0.80;0.60;;;;;;;19.07;31.95;96012.06;3547585;40;20445;-76
2021/05/24 11:42:24;;;;;;;1.93;0.80;;;;;;;19.99;30.85;96029.94;3531593;40;20479;-76
2021/05/24 11:44:52;;;;;;;3.27;1.00;;;;;;;19.66;31.69;96008.06;3539775;40;20833;-75
2021/05/24 11:47:24;;;;;;;1.90;0.60;;;;;;;18.94;32.16;96003.81;3541201;40;20482;-75